Time;durP1;ratioP1;P1;durP2;ratioP2;P2;SDS_P1;SDS_P2;PMS_P1;PMS_P2;Temp;Humidity;BMP_temperature;BMP_pressure;BME280_temperature;BME280_humidity;BME280_pressure;Samples;Min_cycle;Max_cycle;Signal;HPM_P1;HPM_P2
2022/11/09 00:01:39;;;;;;;;;;;;;;;14.98;68.70;102172.28;5057626;28;19916;-87
2022/11/09 00:04:05;;;;;;;;;;;;;;;14.97;68.80;102174.84;5074341;28;19919;-87
2022/11/09 00:06:30;;;;;;;;;;;;;;;14.95;68.96;102176.47;5076611;28;19916;-87
2022/11/09 00:08:56;;;;;;;;;;;;;;;14.94;68.91;102172.91;5076860;28;19952;-87
2022/11/09 00:11:21;;;;;;;;;;;;;;;14.95;68.78;102180.00;5073679;28;19916;-87
2022/11/09 00:13:47;;;;;;;;;;;;;;;14.95;68.92;102176.47;5070449;28;19920;-87
2022/11/09 00:16:14;;;;;;;;;;;;;;;14.94;68.88;102180.81;5072909;28;19912;-87
2022/11/09 00:18:44;;;;;;;;;;;;;;;14.94;68.68;102172.91;5069624;28;19909;-87
2022/11/09 00:21:14;;;;;;;;;;;;;;;14.97;68.62;102175.75;5051947;28;19913;-87
2022/11/09 00:23:39;;;;;;;;;;;;;;;14.95;68.86;102173.84;5072745;28;19975;-87
2022/11/09 00:26:06;;;;;;;;;;;;;;;14.95;68.86;102177.38;5083828;28;20392;-86
2022/11/09 00:28:32;;;;;;;;;;;;;;;14.96;68.65;102175.66;5066745;28;19912;-86
2022/11/09 00:31:01;;;;;;;;;;;;;;;14.96;68.81;102173.00;5086939;28;20278;-87
2022/11/09 00:33:26;;;;;;;;;;;;;;;14.92;68.86;102171.94;5067020;28;19913;-87
2022/11/09 00:35:52;;;;;;;;;;;;;;;14.90;69.05;102165.69;5066620;28;20058;-86
2022/11/09 00:38:17;;;;;;;;;;;;;;;14.91;68.83;102166.59;5084359;28;19913;-87
2022/11/09 00:40:44;;;;;;;;;;;;;;;14.91;68.95;102169.22;5070222;28;20384;-87
2022/11/09 00:43:09;;;;;;;;;;;;;;;14.93;68.86;102159.69;5072028;28;19908;-87
2022/11/09 00:45:35;;;;;;;;;;;;;;;14.93;68.94;102154.44;5060534;28;20309;-86
2022/11/09 00:48:00;;;;;;;;;;;;;;;14.95;68.60;102155.44;5058543;28;20015;-86
2022/11/09 00:50:26;;;;;;;;;;;;;;;14.95;68.68;102158.97;5063779;28;19917;-86
2022/11/09 00:52:51;;;;;;;;;;;;;;;14.92;68.88;102163.13;5067405;28;19956;-86
2022/11/09 00:55:19;;;;;;;;;;;;;;;14.94;68.72;102161.50;5069987;28;20393;-86
2022/11/09 00:57:47;;;;;;;;;;;;;;;14.93;68.93;102157.97;5053978;28;19916;-86
2022/11/09 01:00:14;;;;;;;;;;;;;;;14.92;68.82;102161.44;5068146;28;19916;-86
2022/11/09 01:02:40;;;;;;;;;;;;;;;14.91;68.88;102156.06;5069065;28;19916;-86
2022/11/09 01:05:05;;;;;;;;;;;;;;;14.91;68.86;102151.72;5056330;28;20286;-87
2022/11/09 01:07:31;;;;;;;;;;;;;;;14.91;68.92;102154.34;5078557;28;20310;-86
2022/11/09 01:09:57;;;;;;;;;;;;;;;14.78;68.81;102139.56;5077760;28;20322;-87
2022/11/09 01:12:22;;;;;;;;;;;;;;;14.92;68.84;102158.81;5084391;28;19919;-87
2022/11/09 01:14:48;;;;;;;;;;;;;;;14.93;68.78;102159.69;5071392;28;19919;-85
2022/11/09 01:17:13;;;;;;;;;;;;;;;14.92;68.75;102150.91;5067274;28;20435;-86
2022/11/09 01:19:38;;;;;;;;;;;;;;;14.90;68.83;102151.59;5086315;28;19919;-86
2022/11/09 01:22:04;;;;;;;;;;;;;;;14.91;68.86;102148.19;5078466;28;19912;-86
2022/11/09 01:24:29;;;;;;;;;;;;;;;14.91;68.82;102161.34;5069931;28;20286;-86
2022/11/09 01:26:55;;;;;;;;;;;;;;;14.91;68.77;102162.22;5071473;28;20369;-86
2022/11/09 01:29:23;;;;;;;;;;;;;;;14.93;68.89;102154.44;5077950;28;20289;-86
2022/11/09 01:31:49;;;;;;;;;;;;;;;14.94;68.76;102156.25;5070046;28;19912;-86
2022/11/09 01:34:16;;;;;;;;;;;;;;;14.91;68.78;102156.97;5083636;28;20389;-86
2022/11/09 01:36:41;;;;;;;;;;;;;;;14.87;68.87;102147.09;5074251;28;19909;-86
2022/11/09 01:39:07;;;;;;;;;;;;;;;14.89;68.99;102152.44;5069149;28;19913;-86
2022/11/09 01:41:32;;;;;;;;;;;;;;;14.89;68.96;102153.34;5070246;28;19912;-86
2022/11/09 01:44:14;;;;;;;;;;;;;;;14.90;68.81;102149.91;5070658;28;19912;-86
2022/11/09 01:46:42;;;;;;;;;;;;;;;14.85;68.95;102157.50;5062267;28;19919;-86
2022/11/09 01:49:12;;;;;;;;;;;;;;;14.88;68.82;102154.19;5068868;28;19916;-86
2022/11/09 01:51:49;;;;;;;;;;;;;;;14.84;68.98;102150.44;5069076;28;19913;-86
2022/11/09 01:54:24;;;;;;;;;;;;;;;14.85;68.95;102147.00;5069948;28;19922;-86
2022/11/09 01:56:50;;;;;;;;;;;;;;;14.85;68.95;102148.72;5073717;28;19912;-87
2022/11/09 01:59:21;;;;;;;;;;;;;;;14.84;69.00;102153.06;5071348;28;19923;-87
2022/11/09 02:01:46;;;;;;;;;;;;;;;14.86;68.98;102148.81;5060679;28;20290;-86
2022/11/09 02:04:22;;;;;;;;;;;;;;;14.87;69.05;102147.09;5075621;28;19969;-86
2022/11/09 02:06:47;;;;;;;;;;;;;;;14.88;68.96;102147.97;5071245;28;19969;-87
2022/11/09 02:09:12;;;;;;;;;;;;;;;14.84;68.91;102154.81;5081486;28;19916;-86
2022/11/09 02:11:38;;;;;;;;;;;;;;;14.85;69.05;102149.63;5083229;28;20003;-87
2022/11/09 02:14:03;;;;;;;;;;;;;;;14.88;68.95;102153.25;5078263;28;19908;-86
2022/11/09 02:16:29;;;;;;;;;;;;;;;14.85;68.91;102148.72;5073748;28;19939;-86
2022/11/09 02:18:55;;;;;;;;;;;;;;;14.89;68.86;102153.34;5064590;28;20436;-86
2022/11/09 02:21:21;;;;;;;;;;;;;;;14.86;69.05;102151.44;5061991;28;19913;-86
2022/11/09 02:23:47;;;;;;;;;;;;;;;14.84;68.97;102155.72;5075301;28;19935;-86
2022/11/09 02:26:14;;;;;;;;;;;;;;;14.85;68.97;102152.25;5075814;28;20313;-86
2022/11/09 02:28:39;;;;;;;;;;;;;;;14.87;68.86;102154.97;5069928;28;19962;-86
2022/11/09 02:31:05;;;;;;;;;;;;;;;14.84;69.06;102155.72;5057268;28;20358;-86
2022/11/09 02:33:40;;;;;;;;;;;;;;;14.85;68.78;102144.34;5075750;28;19913;-86
2022/11/09 02:36:06;;;;;;;;;;;;;;;14.84;68.93;102155.72;5076993;28;19966;-86
2022/11/09 02:38:31;;;;;;;;;;;;;;;14.85;68.90;102151.34;5068735;28;19913;-86
2022/11/09 02:40:57;;;;;;;;;;;;;;;14.82;68.97;102149.44;5065464;28;19927;-86
2022/11/09 02:43:22;;;;;;;;;;;;;;;14.86;68.99;102146.19;5065011;28;20316;-86
2022/11/09 02:45:48;;;;;;;;;;;;;;;14.83;69.05;102150.34;5076778;28;20514;-85
2022/11/09 02:48:13;;;;;;;;;;;;;;;14.82;69.05;102149.44;5071583;28;20393;-86
2022/11/09 02:50:38;;;;;;;;;;;;;;;14.82;69.09;102149.44;5074683;28;19948;-86
2022/11/09 02:53:04;;;;;;;;;;;;;;;14.79;69.08;102144.00;5064893;28;20369;-86
2022/11/09 02:55:29;;;;;;;;;;;;;;;14.81;69.05;102150.25;5069157;28;20395;-85
2022/11/09 02:57:55;;;;;;;;;;;;;;;14.82;69.05;102148.56;5072538;28;19913;-86
2022/11/09 03:00:20;;;;;;;;;;;;;;;14.82;68.97;102146.81;5076945;28;19919;-86
2022/11/09 03:02:46;;;;;;;;;;;;;;;14.83;69.08;102148.63;5079557;28;20392;-86
2022/11/09 03:05:11;;;;;;;;;;;;;;;14.82;68.91;102146.81;5056522;28;19932;-86
2022/11/09 03:07:36;;;;;;;;;;;;;;;14.79;69.05;102145.72;5051906;28;19924;-86
2022/11/09 03:10:02;;;;;;;;;;;;;;;14.81;69.13;102144.09;5063388;28;19969;-86
2022/11/09 03:12:28;;;;;;;;;;;;;;;14.81;69.08;102144.09;5085965;28;20004;-86
2022/11/09 03:14:54;;;;;;;;;;;;;;;14.80;69.13;102143.19;5071045;28;19912;-86
2022/11/09 03:17:19;;;;;;;;;;;;;;;14.81;69.08;102147.63;5071962;28;20416;-86
2022/11/09 03:19:45;;;;;;;;;;;;;;;14.82;68.99;102148.56;5061416;28;20011;-86
2022/11/09 03:22:10;;;;;;;;;;;;;;;14.81;69.05;102152.88;5069541;28;20454;-86
2022/11/09 03:24:36;;;;;;;;;;;;;;;14.81;69.00;102141.47;5058898;28;19959;-87
2022/11/09 03:27:01;;;;;;;;;;;;;;;14.80;69.08;102148.44;5051299;28;20299;-86
2022/11/09 03:29:26;;;;;;;;;;;;;;;14.78;69.20;102147.44;5062890;28;20416;-86
2022/11/09 03:31:52;;;;;;;;;;;;;;;14.78;69.17;102141.28;5067875;28;20353;-86
2022/11/09 03:34:17;;;;;;;;;;;;;;;14.80;69.11;102143.19;5066264;28;20384;-85
2022/11/09 03:36:43;;;;;;;;;;;;;;;14.81;68.90;102149.34;5061594;28;19962;-87
2022/11/09 03:39:08;;;;;;;;;;;;;;;14.80;69.14;102147.56;5062833;28;20324;-87
2022/11/09 03:41:34;;;;;;;;;;;;;;;14.80;69.19;102145.81;5068006;28;19912;-87
2022/11/09 03:43:59;;;;;;;;;;;;;;;14.80;69.11;102144.94;5067707;28;20305;-87
2022/11/09 03:46:25;;;;;;;;;;;;;;;14.84;68.93;102146.91;5063831;28;19920;-87
2022/11/09 03:48:50;;;;;;;;;;;;;;;14.78;69.20;102136.94;5073829;28;19948;-87
2022/11/09 03:51:15;;;;;;;;;;;;;;;14.81;69.02;102147.63;5078976;28;19916;-87
2022/11/09 03:53:41;;;;;;;;;;;;;;;14.80;69.12;102145.81;5063142;28;20422;-87
2022/11/09 03:56:06;;;;;;;;;;;;;;;14.79;69.13;102150.97;5059825;28;20401;-87
2022/11/09 03:58:32;;;;;;;;;;;;;;;14.79;69.14;102150.97;5053096;28;20537;-87
2022/11/09 04:00:57;;;;;;;;;;;;;;;14.83;68.97;102156.50;5063793;28;20314;-87
2022/11/09 04:03:23;;;;;;;;;;;;;;;14.82;69.04;102151.19;5067847;28;20305;-86
2022/11/09 04:05:48;;;;;;;;;;;;;;;14.82;69.10;102151.19;5076325;28;20324;-86
2022/11/09 04:08:13;;;;;;;;;;;;;;;14.79;69.13;102145.72;5065441;28;19916;-86
2022/11/09 04:10:39;;;;;;;;;;;;;;;14.80;69.29;102147.56;5078976;28;20400;-86
2022/11/09 04:13:04;;;;;;;;;;;;;;;14.81;69.11;102155.50;5053621;28;20365;-86
2022/11/09 04:15:30;;;;;;;;;;;;;;;14.79;69.06;102151.88;5071281;28;19908;-86
2022/11/09 04:17:59;;;;;;;;;;;;;;;14.78;69.16;102151.81;5082545;28;20373;-85
2022/11/09 04:20:24;;;;;;;;;;;;;;;14.79;69.08;102154.50;5082216;28;19912;-86
2022/11/09 04:22:57;;;;;;;;;;;;;;;14.77;69.18;102160.50;5061413;28;19912;-86
2022/11/09 04:25:24;;;;;;;;;;;;;;;14.78;69.08;102157.97;5062275;28;19999;-87
2022/11/09 04:27:52;;;;;;;;;;;;;;;14.79;68.94;102159.78;5057513;28;20321;-88
2022/11/09 04:30:18;;;;;;;;;;;;;;;14.77;69.03;102165.75;5066131;28;19913;-88
2022/11/09 04:32:43;;;;;;;;;;;;;;;14.77;69.09;102169.28;5068900;28;19912;-88
2022/11/09 04:35:09;;;;;;;;;;;;;;;14.75;69.17;102170.03;5052137;28;19978;-86
2022/11/09 04:37:34;;;;;;;;;;;;;;;14.77;69.09;102161.41;5058825;28;20348;-87
2022/11/09 04:40:00;;;;;;;;;;;;;;;14.75;69.02;102168.31;5057418;28;20290;-86
2022/11/09 04:42:26;;;;;;;;;;;;;;;14.76;69.06;102166.59;5067183;28;19916;-87
2022/11/09 04:44:51;;;;;;;;;;;;;;;14.77;68.99;102168.41;5062240;28;20301;-86
2022/11/09 04:47:17;;;;;;;;;;;;;;;14.80;68.93;102171.22;5050812;28;20392;-86
2022/11/09 04:49:42;;;;;;;;;;;;;;;14.75;69.05;102170.97;5070009;28;20305;-87
2022/11/09 04:52:07;;;;;;;;;;;;;;;14.75;68.99;102173.59;5050590;28;20275;-88
2022/11/09 04:54:33;;;;;;;;;;;;;;;14.75;69.07;102184.09;5069877;28;20404;-87
2022/11/09 04:56:58;;;;;;;;;;;;;;;14.78;68.74;102176.38;5054463;28;19912;-87
2022/11/09 04:59:24;;;;;;;;;;;;;;;14.74;68.89;102179.66;5059705;28;19932;-86
2022/11/09 05:01:49;;;;;;;;;;;;;;;14.74;69.02;102181.38;5068192;28;20308;-88
2022/11/09 05:04:14;;;;;;;;;;;;;;;14.76;68.97;102185.00;5067520;28;19908;-87
2022/11/09 05:06:40;;;;;;;;;;;;;;;14.76;68.79;102187.63;5051090;28;20317;-88
2022/11/09 05:09:06;;;;;;;;;;;;;;;14.72;68.98;102194.44;5069376;28;20385;-90
2022/11/09 05:11:32;;;;;;;;;;;;;;;14.73;68.96;102196.25;5079219;28;19908;-87
2022/11/09 05:13:59;;;;;;;;;;;;;;;14.73;68.98;102196.25;5081612;28;19915;-89
2022/11/09 05:16:25;;;;;;;;;;;;;;;14.73;69.00;102195.31;5061588;28;20411;-88
2022/11/09 05:18:50;;;;;;;;;;;;;;;14.73;68.89;102196.25;5061555;28;19920;-87
2022/11/09 05:21:16;;;;;;;;;;;;;;;14.72;68.83;102207.56;5072831;28;19916;-84
2022/11/09 05:24:00;;;;;;;;;;;;;;;14.72;68.80;102209.31;5069047;28;20671;-86
2022/11/09 05:26:43;;;;;;;;;;;;;;;14.70;68.93;102213.56;5066412;28;19962;-85
2022/11/09 05:29:09;;;;;;;;;;;;;;;14.71;68.90;102216.28;5068372;28;19924;-85
2022/11/09 05:31:35;;;;;;;;;;;;;;;14.74;69.00;102212.94;5082497;28;19914;-87
2022/11/09 05:34:01;;;;;;;;;;;;;;;14.72;68.73;102219.81;5085176;28;19912;-86
2022/11/09 05:36:26;;;;;;;;;;;;;;;14.71;68.80;102218.00;5067331;28;20450;-85
2022/11/09 05:38:52;;;;;;;;;;;;;;;14.72;68.83;102217.19;5061292;28;19913;-86
2022/11/09 05:41:17;;;;;;;;;;;;;;;14.71;68.86;102218.00;5082299;28;19912;-85
2022/11/09 05:43:43;;;;;;;;;;;;;;;14.69;68.88;102220.56;5068038;28;20297;-84
2022/11/09 05:46:09;;;;;;;;;;;;;;;14.70;68.85;102227.59;5070374;28;19912;-85
2022/11/09 05:48:35;;;;;;;;;;;;;;;14.69;68.75;102227.50;5073344;28;19948;-84
2022/11/09 05:51:03;;;;;;;;;;;;;;;14.73;68.69;102227.81;5072040;28;19912;-83
2022/11/09 05:53:29;;;;;;;;;;;;;;;14.73;68.63;102232.13;5067100;28;20400;-84
2022/11/09 05:55:54;;;;;;;;;;;;;;;14.69;68.79;102238.94;5089232;28;19919;-84
2022/11/09 05:58:20;;;;;;;;;;;;;;;14.69;68.75;102243.28;5069255;28;19919;-85
2022/11/09 06:00:48;;;;;;;;;;;;;;;14.67;68.76;102243.22;5082679;28;19916;-85
2022/11/09 06:03:14;;;;;;;;;;;;;;;14.68;68.86;102247.63;5070711;28;20325;-84
2022/11/09 06:05:39;;;;;;;;;;;;;;;14.70;68.79;102255.63;5072900;28;19913;-84
2022/11/09 06:08:06;;;;;;;;;;;;;;;14.69;68.63;102249.47;5072509;28;19970;-85
2022/11/09 06:10:32;;;;;;;;;;;;;;;14.69;68.87;102256.44;5068605;28;19935;-85
2022/11/09 06:12:57;;;;;;;;;;;;;;;14.67;68.61;102253.72;5072413;28;20373;-85
2022/11/09 06:15:23;;;;;;;;;;;;;;;14.64;68.88;102259.69;5071817;28;19973;-84
2022/11/09 06:17:55;;;;;;;;;;;;;;;14.65;68.83;102255.34;5077189;28;20395;-84
2022/11/09 06:20:20;;;;;;;;;;;;;;;14.65;68.88;102258.00;5064013;28;19919;-84
2022/11/09 06:22:53;;;;;;;;;;;;;;;14.10;68.73;102162.56;5066748;28;19916;-84
2022/11/09 06:25:18;;;;;;;;;;;;;;;14.66;68.96;102263.31;5063135;28;20379;-87
2022/11/09 06:27:44;;;;;;;;;;;;;;;14.64;68.88;102261.41;5075028;28;19928;-86
2022/11/09 06:30:10;;;;;;;;;;;;;;;14.52;68.96;102239.59;5062859;28;19913;-86
2022/11/09 06:32:35;;;;;;;;;;;;;;;14.67;68.60;102261.63;5081016;28;19970;-86
2022/11/09 06:35:00;;;;;;;;;;;;;;;14.71;68.61;102254.81;5058704;28;19908;-86
2022/11/09 06:37:26;;;;;;;;;;;;;;;14.60;68.18;102262.94;5058373;28;20563;-83
2022/11/09 06:39:51;;;;;;;;;;;;;;;14.59;68.50;102276.00;5063894;28;20385;-82
2022/11/09 06:42:17;;;;;;;;;;;;;;;14.61;68.54;102267.41;5073437;28;20309;-83
2022/11/09 06:44:42;;;;;;;;;;;;;;;14.60;68.59;102270.81;5068558;28;20298;-81
2022/11/09 06:47:07;;;;;;;;;;;;;;;14.60;68.83;102270.81;5058204;28;19918;-82
2022/11/09 06:49:33;;;;;;;;;;;;;;;14.63;68.86;102275.38;5071623;28;19908;-82
2022/11/09 06:51:58;;;;;;;;;;;;;;;14.61;68.79;102272.66;5063278;28;20516;-82
2022/11/09 06:54:24;;;;;;;;;;;;;;;14.68;68.68;102275.66;5068218;28;20274;-83
2022/11/09 06:56:49;;;;;;;;;;;;;;;14.67;68.66;102280.03;5073405;28;20411;-84
2022/11/09 06:59:15;;;;;;;;;;;;;;;14.66;68.63;102278.19;5065893;28;20410;-84
2022/11/09 07:01:40;;;;;;;;;;;;;;;14.65;68.71;102279.91;5061797;28;19920;-85
2022/11/09 07:04:05;;;;;;;;;;;;;;;14.67;68.73;102280.03;5072772;28;19913;-85
2022/11/09 07:06:31;;;;;;;;;;;;;;;14.63;68.77;102278.91;5077249;28;20005;-85
2022/11/09 07:08:56;;;;;;;;;;;;;;;14.67;68.78;102274.75;5058586;28;20401;-84
2022/11/09 07:11:22;;;;;;;;;;;;;;;14.67;68.86;102277.41;5066515;28;19913;-84
2022/11/09 07:13:48;;;;;;;;;;;;;;;14.66;68.65;102276.47;5063238;28;20373;-84
2022/11/09 07:16:16;;;;;;;;;;;;;;;14.66;68.73;102275.56;5057383;28;19909;-85
2022/11/09 07:18:42;;;;;;;;;;;;;;;14.66;68.93;102275.56;5057360;28;20301;-85
2022/11/09 07:21:08;;;;;;;;;;;;;;;14.65;68.75;102271.13;5056101;28;19912;-84
2022/11/09 07:23:34;;;;;;;;;;;;;;;14.66;68.83;102270.31;5072815;28;19912;-84
2022/11/09 07:25:59;;;;;;;;;;;;;;;14.68;68.85;102266.06;5064103;28;19935;-87
2022/11/09 07:28:24;;;;;;;;;;;;;;;14.64;68.88;102274.56;5068698;28;20365;-86
2022/11/09 07:30:51;;;;;;;;;;;;;;;14.65;68.81;102273.75;5087601;28;19908;-84
2022/11/09 07:33:17;;;;;;;;;;;;;;;14.66;68.75;102273.84;5072285;28;19940;-86
2022/11/09 07:35:43;;;;;;;;;;;;;;;14.66;68.90;102271.19;5087839;28;19951;-86
2022/11/09 07:38:08;;;;;;;;;;;;;;;14.63;68.93;102271.03;5066469;28;19916;-87
2022/11/09 07:40:34;;;;;;;;;;;;;;;14.66;69.02;102271.19;5063636;28;19912;-86
2022/11/09 07:43:00;;;;;;;;;;;;;;;14.61;68.99;102272.66;5070277;28;20374;-86
2022/11/09 07:45:26;;;;;;;;;;;;;;;14.64;68.98;102270.19;5068620;28;20427;-87
2022/11/09 07:47:55;;;;;;;;;;;;;;;14.60;69.13;102281.34;5061450;28;20020;-89
2022/11/09 07:50:25;;;;;;;;;;;;;;;14.61;69.13;102277.91;5075367;28;19952;-90
2022/11/09 07:52:55;;;;;;;;;;;;;;;14.58;69.09;102274.19;5069033;28;19955;-91
2022/11/09 07:55:20;;;;;;;;;;;;;;;14.62;69.12;102278.81;5074773;28;20293;-90
2022/11/09 07:57:48;;;;;;;;;;;;;;;14.59;69.06;102273.38;5072343;28;19922;-91
2022/11/09 08:00:18;;;;;;;;;;;;;;;14.60;69.22;102288.31;5072607;28;19948;-90
2022/11/09 08:02:49;;;;;;;;;;;;;;;14.58;69.15;102285.63;5055718;28;19916;-91
2022/11/09 08:05:18;;;;;;;;;;;;;;;14.60;69.14;102283.97;5053115;28;19919;-91
2022/11/09 08:08:04;;;;;;;;;;;;;;;14.60;69.11;102283.97;5072622;28;20350;-91
2022/11/09 08:10:36;;;;;;;;;;;;;;;14.60;69.19;102288.31;5073128;28;19912;-91
2022/11/09 08:13:07;;;;;;;;;;;;;;;14.61;69.22;102282.28;5055448;28;19913;-91
2022/11/09 08:15:35;;;;;;;;;;;;;;;14.66;69.19;102284.34;5062223;28;20313;-90
2022/11/09 08:18:04;;;;;;;;;;;;;;;14.65;69.37;102292.16;5070943;28;19999;-91
2022/11/09 08:20:30;;;;;;;;;;;;;;;14.69;69.15;102295.88;5072525;28;19912;-90
2022/11/09 08:22:56;;;;;;;;;;;;;;;14.68;69.39;102296.69;5055017;28;20282;-90
2022/11/09 08:25:25;;;;;;;;;;;;;;;14.69;69.38;102287.97;5066089;28;19962;-89
2022/11/09 08:27:51;;;;;;;;;;;;;;;14.71;69.25;102294.25;5077507;28;19912;-90
2022/11/09 08:30:20;;;;;;;;;;;;;;;14.74;69.40;102289.19;5070700;28;19919;-89
2022/11/09 08:32:45;;;;;;;;;;;;;;;14.72;69.18;102289.09;5061502;28;20401;-89
2022/11/09 08:35:15;;;;;;;;;;;;;;;14.70;69.58;102288.09;5053261;28;19908;-88
2022/11/09 08:37:41;;;;;;;;;;;;;;;14.58;70.24;102290.88;5083002;28;19916;-89
2022/11/09 08:40:06;;;;;;;;;;;;;;;14.57;70.69;102281.16;5070725;28;20401;-89
2022/11/09 08:42:35;;;;;;;;;;;;;;;14.59;70.47;102284.81;5066292;28;20329;-89
2022/11/09 08:45:01;;;;;;;;;;;;;;;14.62;70.60;102282.34;5054432;28;19961;-89
2022/11/09 08:47:28;;;;;;;;;;;;;;;14.68;70.37;102279.19;5060905;28;19920;-90
2022/11/09 08:49:54;;;;;;;;;;;;;;;14.68;70.46;102286.19;5080821;28;19909;-89
2022/11/09 08:52:19;;;;;;;;;;;;;;;14.70;70.49;102287.19;5053794;28;19915;-89
2022/11/09 08:54:45;;;;;;;;;;;;;;;14.78;70.25;102281.56;5049159;28;20003;-88
2022/11/09 08:57:12;;;;;;;;;;;;;;;14.80;70.53;102279.06;5069039;28;19909;-89
2022/11/09 08:59:44;;;;;;;;;;;;;;;14.83;70.83;102289.75;5071136;28;19914;-90
2022/11/09 09:02:11;;;;;;;;;;;;;;;14.80;71.19;102274.69;5054065;28;19908;-89
2022/11/09 09:04:36;;;;;;;;;;;;;;;14.92;70.27;102277.16;5070815;28;19916;-88
2022/11/09 09:07:02;;;;;;;;;;;;;;;14.85;70.87;102282.84;5076151;28;20025;-89
2022/11/09 09:09:28;;;;;;;;;;;;;;;14.93;70.71;102272.81;5071646;28;19916;-89
2022/11/09 09:11:54;;;;;;;;;;;;;;;14.94;70.79;102272.88;5054163;28;19908;-89
2022/11/09 09:14:20;;;;;;;;;;;;;;;14.98;70.71;102273.97;5049971;28;19913;-89
2022/11/09 09:16:46;;;;;;;;;;;;;;;14.98;70.47;102267.00;5055064;28;20374;-89
2022/11/09 09:19:11;;;;;;;;;;;;;;;15.00;70.68;102265.34;5059491;28;19912;-89
2022/11/09 09:21:36;;;;;;;;;;;;;;;14.98;71.03;102259.09;5050571;28;20410;-90
2022/11/09 09:24:03;;;;;;;;;;;;;;;15.00;70.91;102265.34;5070602;28;19909;-90
2022/11/09 09:26:28;;;;;;;;;;;;;;;15.14;70.59;102260.03;5055268;28;19909;-90
2022/11/09 09:28:54;;;;;;;;;;;;;;;15.11;71.26;102266.00;5068816;28;20011;-90
2022/11/09 09:31:19;;;;;;;;;;;;;;;15.04;71.06;102262.09;5052182;28;19913;-90
2022/11/09 09:33:46;;;;;;;;;;;;;;;15.03;71.19;102260.31;5066321;28;19947;-90
2022/11/09 09:36:16;;;;;;;;;;;;;;;14.94;71.54;102257.09;5051884;28;19912;-90
2022/11/09 09:38:42;;;;;;;;;;;;;;;14.98;71.51;102256.47;5050254;28;20008;-90
2022/11/09 09:41:13;;;;;;;;;;;;;;;15.04;71.50;102258.56;5069723;28;19909;-91
2022/11/09 09:43:43;;;;;;;;;;;;;;;15.05;71.56;102257.78;5049667;28;19943;-90
2022/11/09 09:46:30;;;;;;;;;;;;;;;14.99;71.86;102258.28;5070199;28;19908;-91
2022/11/09 09:49:22;;;;;;;;;;;;;;;15.05;71.70;102248.16;5071492;28;19912;-90
2022/11/09 09:52:07;;;;;;;;;;;;;;;14.98;71.96;102243.31;5063004;28;20347;-89
2022/11/09 09:54:36;;;;;;;;;;;;;;;14.98;71.92;102245.94;5018549;28;19915;-90
2022/11/09 09:57:04;;;;;;;;;;;;;;;15.07;71.59;102238.63;5053830;28;19908;-90
2022/11/09 09:59:37;;;;;;;;;;;;;;;15.02;71.88;102236.53;5064879;28;19930;-89
2022/11/09 10:02:20;;;;;;;;;;;;;;;15.12;71.50;102238.88;5038173;28;20003;-90
2022/11/09 10:04:46;;;;;;;;;;;;;;;15.07;71.71;102235.09;5052980;28;20002;-90
2022/11/09 10:07:31;;;;;;;;;;;;;;;15.09;71.89;102238.72;5052424;28;19947;-90
2022/11/09 10:09:57;;;;;;;;;;;;;;;15.18;71.43;102233.09;5066965;28;20503;-90
2022/11/09 10:12:30;;;;;;;;;;;;;;;15.25;71.22;102240.50;5070126;28;19915;-90
2022/11/09 10:15:31;;;;;;;;;;;;;;;15.27;71.26;102239.78;5051420;28;19937;-88
2022/11/09 10:17:59;;;;;;;;;;;;;;;15.32;71.35;102247.03;5012503;28;19916;-88
2022/11/09 10:20:24;;;;;;;;;;;;;;;15.27;71.44;102239.78;5050311;28;20271;-88
2022/11/09 10:23:07;;;;;;;;;;;;;;;15.20;71.61;102237.63;5055200;28;19920;-88
2022/11/09 10:25:36;;;;;;;;;;;;;;;15.27;71.46;102236.25;5053773;28;20307;-87
2022/11/09 10:28:02;;;;;;;;;;;;;;;15.35;71.13;102240.25;5061432;28;19909;-87
2022/11/09 10:30:28;;;;;;;;;;;;;;;15.38;71.50;102228.97;5071618;28;19913;-85
2022/11/09 10:32:55;;;;;;;;;;;;;;;15.31;71.54;102232.06;5070846;28;19919;-87
2022/11/09 10:35:23;;;;;;;;;;;;;;;15.21;71.66;102222.72;5070501;28;19909;-86
2022/11/09 10:37:50;;;;;;;;;;;;;;;15.17;72.72;102232.16;5073755;28;19915;-86
2022/11/09 10:40:28;;;;;;;;;;;;;;;15.19;71.75;102220.00;5053558;28;19908;-87
2022/11/09 10:42:55;;;;;;;;;;;;;;;15.18;72.01;102223.47;5064254;28;19969;-88
2022/11/09 10:45:24;;;;;;;;;;;;;;;15.24;72.12;102226.44;5070571;28;19915;-88
2022/11/09 10:47:54;;;;;;;;;;;;;;;15.19;71.79;102222.63;5073885;28;19995;-88
2022/11/09 10:50:26;;;;;;;;;;;;;;;15.11;72.27;102218.63;5077113;28;20313;-89
2022/11/09 10:52:52;;;;;;;;;;;;;;;15.18;72.30;102218.19;5087305;28;19944;-86
2022/11/09 10:55:35;;;;;;;;;;;;;;;15.16;72.23;102216.31;5082376;28;19928;-87
2022/11/09 10:58:19;;;;;;;;;;;;;;;15.11;72.36;102215.09;5057318;28;19914;-87
2022/11/09 11:01:14;;;;;;;;;;;;;;;15.21;72.18;102221.00;5062946;28;19909;-88
2022/11/09 11:03:40;;;;;;;;;;;;;;;15.13;72.28;102213.47;5051077;28;19909;-89
2022/11/09 11:06:14;;;;;;;;;;;;;;;15.16;72.20;102211.94;5053277;28;19909;-88
2022/11/09 11:08:42;;;;;;;;;;;;;;;15.20;72.21;102213.03;5070846;28;19920;-88
2022/11/09 11:11:29;;;;;;;;;;;;;;;15.24;72.02;102209.75;5074425;28;19908;-88
2022/11/09 11:14:03;;;;;;;;;;;;;;;15.27;71.99;102216.09;5052832;28;20413;-87
2022/11/09 11:16:33;;;;;;;;;;;;;;;15.21;72.21;102206.94;5065540;28;19908;-88
2022/11/09 11:18:58;;;;;;;;;;;;;;;15.28;72.15;102211.72;5064099;28;19913;-87
2022/11/09 11:21:24;;;;;;;;;;;;;;;15.33;72.65;102198.84;5036359;28;19908;-87
2022/11/09 11:24:09;;;;;;;;;;;;;;;15.24;72.60;102207.13;5054298;28;19916;-89
2022/11/09 11:26:54;;;;;;;;;;;;;;;15.19;72.97;102203.31;5063308;28;19909;-89
2022/11/09 11:29:22;;;;;;;;;;;;;;;15.23;72.63;102197.41;5053315;28;19912;-88
2022/11/09 11:31:47;;;;;;;;;;;;;;;15.19;73.29;102206.84;5068889;28;20004;-88
2022/11/09 11:34:13;;;;;;;;;;;;;;;15.22;72.69;102203.50;5072078;28;19940;-89
2022/11/09 11:37:08;;;;;;;;;;;;;;;15.28;72.72;102203.81;5057377;28;19995;-89
2022/11/09 11:39:45;;;;;;;;;;;;;;;15.30;72.90;102198.66;5048913;28;20378;-87
2022/11/09 11:42:23;;;;;;;;;;;;;;;15.30;72.56;102194.28;5057605;28;19909;-89
2022/11/09 11:44:51;;;;;;;;;;;;;;;15.34;72.40;102201.56;5066700;28;20274;-87
2022/11/09 11:47:23;;;;;;;;;;;;;;;15.40;72.73;102198.38;5068203;28;20369;-87
2022/11/09 11:50:02;;;;;;;;;;;;;;;15.35;72.50;102197.22;5070702;28;19908;-88
2022/11/09 11:52:41;;;;;;;;;;;;;;;15.45;72.14;102200.47;5068784;28;19913;-88
2022/11/09 11:55:13;;;;;;;;;;;;;;;15.38;72.48;102200.00;5069800;28;20362;-87
2022/11/09 11:57:47;;;;;;;;;;;;;;;15.42;72.25;102202.00;5062793;28;20552;-86
2022/11/09 12:00:13;;;;;;;;;;;;;;;15.41;72.75;102205.47;5072435;28;19936;-87
2022/11/09 12:03:02;;;;;;;;;;;;;;;15.43;72.21;102203.81;5053017;28;19909;-87
2022/11/09 12:05:46;;;;;;;;;;;;;;;15.32;73.08;102208.44;5031909;28;19917;-87
2022/11/09 12:08:23;;;;;;;;;;;;;;;15.37;72.63;102208.75;5055064;28;19916;-86
2022/11/09 12:10:57;;;;;;;;;;;;;;;15.36;72.89;102207.81;5088558;28;19908;-87
2022/11/09 12:13:41;;;;;;;;;;;;;;;15.38;72.78;102203.53;5071209;28;19955;-87
2022/11/09 12:16:09;;;;;;;;;;;;;;;15.33;73.23;102199.75;5072639;28;20300;-87
2022/11/09 12:18:53;;;;;;;;;;;;;;;15.40;73.11;102207.16;5060566;28;19995;-87
2022/11/09 12:21:31;;;;;;;;;;;;;;;15.49;72.68;102196.25;5052562;28;19913;-86
2022/11/09 12:24:03;;;;;;;;;;;;;;;15.46;72.63;102204.91;5071543;28;19913;-88
2022/11/09 12:26:28;;;;;;;;;;;;;;;15.44;73.07;102201.25;5064143;28;19915;-87
2022/11/09 12:28:56;;;;;;;;;;;;;;;15.49;72.97;102204.16;5072063;28;20002;-87
2022/11/09 12:31:26;;;;;;;;;;;;;;;15.38;74.10;102206.19;5070367;28;20454;-88
2022/11/09 12:33:58;;;;;;;;;;;;;;;15.52;73.29;102209.63;5054151;28;19915;-88
2022/11/09 12:36:26;;;;;;;;;;;;;;;15.64;72.64;102199.78;5070274;28;20379;-88
2022/11/09 12:38:51;;;;;;;;;;;;;;;15.65;72.88;102200.69;5069957;28;19908;-88
2022/11/09 12:41:18;;;;;;;;;;;;;;;15.71;72.55;102202.75;5078901;28;20357;-89